createdAt,value
2023-02-26T00:01:31.483Z,101834.53
2023-02-26T00:04:02.114Z,101835.22
2023-02-26T00:06:31.926Z,101841.50
2023-02-26T00:08:59.339Z,101846.50
2023-02-26T00:11:26.785Z,101854.72
2023-02-26T00:13:54.569Z,101845.63
2023-02-26T00:16:33.545Z,101860.28
2023-02-26T00:19:04.289Z,101858.91
2023-02-26T00:21:32.149Z,101875.66
2023-02-26T00:24:00.419Z,101881.78
2023-02-26T00:26:31.076Z,101888.44
2023-02-26T00:28:58.952Z,101885.09
2023-02-26T00:31:27.729Z,101890.19
2023-02-26T00:33:58.432Z,101897.19
2023-02-26T00:36:40.935Z,101893.00
2023-02-26T00:39:29.927Z,101906.72
2023-02-26T00:41:58.174Z,101906.41
2023-02-26T00:44:26.624Z,101899.97
2023-02-26T00:47:03.870Z,101915.50
2023-02-26T00:49:46.046Z,101908.28
2023-02-26T00:53:05.727Z,101916.81
2023-02-26T00:55:32.810Z,101905.91
2023-02-26T00:57:59.872Z,101918.78
2023-02-26T01:00:28.577Z,101916.91
2023-02-26T01:02:56.548Z,101914.91
2023-02-26T01:05:23.967Z,101916.22
2023-02-26T01:08:00.216Z,101916.75
2023-02-26T01:10:28.450Z,101925.16
2023-02-26T01:12:57.541Z,101930.16
2023-02-26T01:15:24.993Z,101919.41
2023-02-26T01:18:11.768Z,101916.84
2023-02-26T01:20:46.288Z,101935.03
2023-02-26T01:23:16.654Z,101931.47
2023-02-26T01:25:59.339Z,101937.25
2023-02-26T01:28:27.622Z,101934.44
2023-02-26T01:31:00.745Z,101920.03
2023-02-26T01:33:44.516Z,101936.88
2023-02-26T01:36:27.063Z,101939.19
2023-02-26T01:39:18.054Z,101939.75
2023-02-26T01:41:52.125Z,101941.59
2023-02-26T01:44:54.606Z,101959.00
2023-02-26T01:47:56.949Z,101956.97
2023-02-26T01:50:29.924Z,101956.63
2023-02-26T01:53:25.864Z,101961.41
2023-02-26T01:56:01.749Z,101958.75
2023-02-26T01:58:33.446Z,101961.31
2023-02-26T02:01:01.316Z,101962.75
2023-02-26T02:03:32.168Z,101968.25
2023-02-26T02:06:12.088Z,101968.69
2023-02-26T02:08:39.471Z,101970.97
2023-02-26T02:11:09.806Z,101974.03
2023-02-26T02:13:51.900Z,101991.00
2023-02-26T02:16:37.303Z,101984.66
2023-02-26T02:19:22.788Z,101985.06
2023-02-26T02:22:20.176Z,101989.13
2023-02-26T02:25:14.961Z,101994.50
2023-02-26T02:28:15.545Z,102001.03
2023-02-26T02:31:09.922Z,101998.38
2023-02-26T02:33:52.064Z,102001.78
2023-02-26T02:36:45.140Z,102006.50
2023-02-26T02:39:36.349Z,102012.78
2023-02-26T02:42:09.225Z,102017.88
2023-02-26T02:44:41.923Z,102013.19
2023-02-26T02:47:11.567Z,102015.84
2023-02-26T02:49:46.343Z,102013.72
2023-02-26T02:52:19.296Z,102019.69
2023-02-26T02:54:55.683Z,102019.41
2023-02-26T02:57:28.733Z,102023.63
2023-02-26T03:00:01.065Z,102021.47
2023-02-26T03:02:39.892Z,102025.16
2023-02-26T03:05:07.929Z,102036.75
2023-02-26T03:07:54.611Z,102026.69
2023-02-26T03:10:22.027Z,102039.28
2023-02-26T03:12:49.098Z,102035.22
2023-02-26T03:15:22.758Z,102029.75
2023-02-26T03:18:00.708Z,102047.19
2023-02-26T03:20:33.899Z,102037.94
2023-02-26T03:23:06.092Z,102047.84
2023-02-26T03:25:45.440Z,102043.25
2023-02-26T03:28:31.453Z,102051.16
2023-02-26T03:31:07.410Z,102051.66
2023-02-26T03:34:00.741Z,102060.81
2023-02-26T03:36:53.275Z,102056.59
2023-02-26T03:39:29.726Z,102061.59
2023-02-26T03:42:00.505Z,102046.59
2023-02-26T03:44:35.146Z,102066.66
2023-02-26T03:47:08.037Z,102068.34
2023-02-26T03:49:41.573Z,102065.66
2023-02-26T03:52:08.913Z,102074.56
2023-02-26T03:54:41.442Z,102078.53
2023-02-26T03:57:08.562Z,102077.50
2023-02-26T03:59:35.987Z,102080.28
2023-02-26T04:02:14.293Z,102093.13
2023-02-26T04:04:47.344Z,102080.28
2023-02-26T04:07:17.020Z,102089.81
2023-02-26T04:09:47.656Z,102090.47
2023-02-26T04:12:15.500Z,102097.97
2023-02-26T04:14:42.583Z,102109.53
2023-02-26T04:17:09.728Z,102105.97
2023-02-26T04:19:36.758Z,102118.44
2023-02-26T04:22:03.936Z,102105.94
2023-02-26T04:24:31.018Z,102113.72
2023-02-26T04:26:58.976Z,102121.97
2023-02-26T04:29:26.056Z,102114.44
2023-02-26T04:31:53.738Z,102135.06
2023-02-26T04:34:20.856Z,102135.69
2023-02-26T04:36:47.965Z,102132.13
2023-02-26T04:39:15.067Z,102143.94
2023-02-26T04:41:42.106Z,102143.16
2023-02-26T04:44:09.221Z,102138.84
2023-02-26T04:46:36.505Z,102142.94
2023-02-26T04:49:03.628Z,102145.31
2023-02-26T04:51:30.939Z,102157.03
2023-02-26T04:53:58.137Z,102153.34
2023-02-26T04:56:26.689Z,102155.47
2023-02-26T04:58:53.884Z,102160.44
2023-02-26T05:01:20.922Z,102166.13
2023-02-26T05:03:48.044Z,102156.34
2023-02-26T05:06:15.172Z,102171.72
2023-02-26T05:08:44.077Z,102174.25
2023-02-26T05:11:11.755Z,102174.25
2023-02-26T05:13:39.290Z,102178.03
2023-02-26T05:16:08.084Z,102178.81
2023-02-26T05:18:35.184Z,102184.50
2023-02-26T05:21:02.600Z,102180.31
2023-02-26T05:23:29.701Z,102188.44
2023-02-26T05:25:58.955Z,102190.81
2023-02-26T05:28:28.173Z,102192.47
2023-02-26T05:30:58.505Z,102198.31
2023-02-26T05:33:27.289Z,102199.81
2023-02-26T05:35:54.597Z,102206.56
2023-02-26T05:38:24.129Z,102205.25
2023-02-26T05:40:51.169Z,102202.44
2023-02-26T05:43:18.246Z,102211.88
2023-02-26T05:45:45.370Z,102220.09
2023-02-26T05:48:13.239Z,102216.66
2023-02-26T05:50:40.328Z,102226.06
2023-02-26T05:53:07.388Z,102214.97
2023-02-26T05:55:34.483Z,102224.19
2023-02-26T05:58:01.798Z,102243.94
2023-02-26T06:00:28.908Z,102239.59
2023-02-26T06:02:57.413Z,102245.44
2023-02-26T06:05:24.497Z,102244.69
2023-02-26T06:07:51.522Z,102254.22
2023-02-26T06:10:18.645Z,102257.38
2023-02-26T06:12:45.766Z,102257.84
2023-02-26T06:15:13.048Z,102256.06
2023-02-26T06:17:41.039Z,102268.00
2023-02-26T06:20:09.439Z,102272.94
2023-02-26T06:22:36.658Z,102270.00
2023-02-26T06:25:04.570Z,102277.47
2023-02-26T06:27:31.621Z,102277.31
2023-02-26T06:29:58.704Z,102282.28
2023-02-26T06:32:30.568Z,102284.69
2023-02-26T06:35:00.783Z,102300.66
2023-02-26T06:37:28.697Z,102293.78
2023-02-26T06:39:55.736Z,102296.63
2023-02-26T06:42:23.315Z,102296.34
2023-02-26T06:44:50.479Z,102301.69
2023-02-26T06:47:17.520Z,102311.88
2023-02-26T06:49:44.570Z,102314.41
2023-02-26T06:52:11.724Z,102319.31
2023-02-26T06:54:38.824Z,102322.28
2023-02-26T06:57:05.900Z,102313.34
2023-02-26T06:59:33.153Z,102318.13
2023-02-26T07:02:00.679Z,102327.44
2023-02-26T07:04:28.695Z,102334.00
2023-02-26T07:06:55.780Z,102329.47
2023-02-26T07:09:22.938Z,102345.88
2023-02-26T07:11:50.117Z,102348.09
2023-02-26T07:14:17.392Z,102348.63
2023-02-26T07:16:44.582Z,102359.66
2023-02-26T07:19:11.613Z,102351.44
2023-02-26T07:21:38.666Z,102365.88
2023-02-26T07:24:06.466Z,102365.50
2023-02-26T07:26:33.598Z,102365.47
2023-02-26T07:29:00.708Z,102360.91
2023-02-26T07:31:28.882Z,102372.91
2023-02-26T07:33:56.067Z,102374.50
2023-02-26T07:36:23.554Z,102372.63
2023-02-26T07:38:50.826Z,102375.84
2023-02-26T07:41:17.941Z,102371.91
2023-02-26T07:43:45.045Z,102382.16
2023-02-26T07:46:12.394Z,102386.38
2023-02-26T07:48:39.528Z,102369.59
2023-02-26T07:51:07.866Z,102391.91
2023-02-26T07:53:35.019Z,102387.63
2023-02-26T07:56:02.165Z,102391.06
2023-02-26T07:58:29.274Z,102389.31
2023-02-26T08:00:57.458Z,102399.50
2023-02-26T08:03:24.446Z,102382.19
2023-02-26T08:05:51.968Z,102401.72
2023-02-26T08:08:19.086Z,102396.72
2023-02-26T08:10:46.167Z,102410.75
2023-02-26T08:13:13.339Z,102416.22
2023-02-26T08:15:43.850Z,102425.81
2023-02-26T08:18:12.124Z,102409.09
2023-02-26T08:20:40.080Z,102418.78
2023-02-26T08:23:07.209Z,102442.00
2023-02-26T08:25:34.395Z,102445.94
2023-02-26T08:28:03.246Z,102443.53
2023-02-26T08:30:30.447Z,102443.16
2023-02-26T08:32:58.491Z,102443.53
2023-02-26T08:35:25.668Z,102457.06
2023-02-26T08:37:55.562Z,102471.34
2023-02-26T08:40:23.397Z,102464.06
2023-02-26T08:42:50.435Z,102466.09
2023-02-26T08:45:17.622Z,102467.13
2023-02-26T08:47:56.087Z,102466.13
2023-02-26T08:50:25.862Z,102472.75
2023-02-26T08:52:53.404Z,102474.91
2023-02-26T08:55:21.272Z,102474.13
2023-02-26T08:57:48.371Z,102466.72
2023-02-26T09:00:24.501Z,102483.44
2023-02-26T09:02:52.209Z,102490.56
2023-02-26T09:05:19.338Z,102493.88
2023-02-26T09:07:46.392Z,102486.47
2023-02-26T09:10:14.394Z,102497.31
2023-02-26T09:12:41.778Z,102499.47
2023-02-26T09:15:10.543Z,102506.47
2023-02-26T09:17:38.325Z,102511.19
2023-02-26T09:20:06.194Z,102509.13
2023-02-26T09:22:33.220Z,102507.72
2023-02-26T09:25:00.630Z,102491.25
2023-02-26T09:27:28.791Z,102498.25
2023-02-26T09:29:55.808Z,102505.66
2023-02-26T09:32:23.658Z,102512.91
2023-02-26T09:34:51.201Z,102508.19
2023-02-26T09:37:18.917Z,102511.97
2023-02-26T09:39:46.522Z,102513.00
2023-02-26T09:42:27.910Z,102520.78
2023-02-26T09:44:59.938Z,102513.38
2023-02-26T09:47:39.339Z,102517.16
2023-02-26T09:50:13.291Z,102516.78
2023-02-26T09:52:47.010Z,102520.19
2023-02-26T09:55:23.192Z,102520.81
2023-02-26T09:57:53.252Z,102522.94
2023-02-26T10:00:20.303Z,102525.09
2023-02-26T10:03:17.820Z,102530.47
2023-02-26T10:06:19.504Z,102529.25
2023-02-26T10:09:00.890Z,102535.84
2023-02-26T10:11:43.678Z,102544.25
2023-02-26T10:14:16.683Z,102543.84
2023-02-26T10:16:50.010Z,102531.88
2023-02-26T10:19:20.948Z,102548.47
2023-02-26T10:21:48.048Z,102551.38
2023-02-26T10:24:37.522Z,102557.75
2023-02-26T10:27:10.103Z,102556.31
2023-02-26T10:29:45.777Z,102561.66
2023-02-26T10:32:43.473Z,102563.25
2023-02-26T10:35:15.467Z,102558.94
2023-02-26T10:37:51.283Z,102561.16
2023-02-26T10:40:36.731Z,102563.94
2023-02-26T10:43:09.688Z,102571.19
2023-02-26T10:45:54.814Z,102567.44
2023-02-26T10:48:32.284Z,102569.53
2023-02-26T10:51:01.657Z,102571.78
2023-02-26T10:53:31.649Z,102573.69
2023-02-26T10:56:10.270Z,102561.69
2023-02-26T10:58:37.587Z,102564.28
2023-02-26T11:01:11.234Z,102569.06
2023-02-26T11:03:40.426Z,102566.94
2023-02-26T11:06:07.902Z,102562.84
2023-02-26T11:08:42.763Z,102569.94
2023-02-26T11:11:10.032Z,102570.97
2023-02-26T11:13:38.755Z,102575.63
2023-02-26T11:16:13.785Z,102571.16
2023-02-26T11:18:54.929Z,102583.09
2023-02-26T11:21:34.886Z,102567.63
2023-02-26T11:24:07.030Z,102585.44
2023-02-26T11:26:38.802Z,102562.03
2023-02-26T11:29:06.410Z,102585.22
2023-02-26T11:31:34.048Z,102587.00
2023-02-26T11:34:08.421Z,102588.56
2023-02-26T11:36:40.476Z,102570.28
2023-02-26T11:39:13.512Z,102588.00
2023-02-26T11:41:41.204Z,102572.06
2023-02-26T11:44:14.312Z,102594.03
2023-02-26T11:46:53.132Z,102589.25
2023-02-26T11:49:23.870Z,102574.19
2023-02-26T11:52:26.438Z,102590.34
2023-02-26T11:55:00.705Z,102594.81
2023-02-26T11:57:30.357Z,102585.66
2023-02-26T12:00:01.427Z,102585.22
2023-02-26T12:02:37.080Z,102582.31
2023-02-26T12:05:07.022Z,102566.59
2023-02-26T12:07:34.348Z,102572.41
2023-02-26T12:10:01.748Z,102590.78
2023-02-26T12:12:43.855Z,102569.84
2023-02-26T12:15:28.609Z,102576.63
2023-02-26T12:18:11.241Z,102576.09
2023-02-26T12:21:02.887Z,102577.41
2023-02-26T12:23:51.225Z,102568.94
2023-02-26T12:26:33.938Z,102566.34
2023-02-26T12:29:38.491Z,102570.00
2023-02-26T12:32:16.055Z,102564.53
2023-02-26T12:35:02.145Z,102574.69
2023-02-26T12:38:08.807Z,102568.22
2023-02-26T12:41:05.509Z,102570.78
2023-02-26T12:43:44.473Z,102572.56
2023-02-26T12:46:33.047Z,102569.34
2023-02-26T12:49:47.568Z,102570.44
2023-02-26T12:52:36.097Z,102567.53
2023-02-26T12:55:09.604Z,102564.31
2023-02-26T12:57:58.913Z,102566.19
2023-02-26T13:00:35.209Z,102562.72
2023-02-26T13:03:25.199Z,102562.25
2023-02-26T13:06:36.090Z,102571.75
2023-02-26T13:09:21.732Z,102570.84
2023-02-26T13:12:47.461Z,102573.13
2023-02-26T13:15:26.171Z,102567.16
2023-02-26T13:18:17.698Z,102565.06
2023-02-26T13:20:58.466Z,102570.16
2023-02-26T13:23:37.317Z,102554.16
2023-02-26T13:26:08.975Z,102563.75
2023-02-26T13:28:41.026Z,102557.84
2023-02-26T13:31:19.002Z,102555.59
2023-02-26T13:33:48.146Z,102561.59
2023-02-26T13:36:16.814Z,102555.50
2023-02-26T13:39:04.711Z,102557.84
2023-02-26T13:41:57.596Z,102563.19
2023-02-26T13:44:37.344Z,102544.13
2023-02-26T13:47:10.842Z,102564.25
2023-02-26T13:49:45.892Z,102569.09
2023-02-26T13:52:25.488Z,102566.16
2023-02-26T13:54:53.652Z,102557.44
2023-02-26T13:57:32.566Z,102562.41
2023-02-26T14:00:16.341Z,102553.69
2023-02-26T14:02:50.006Z,102559.94
2023-02-26T14:05:48.917Z,102558.03
2023-02-26T14:08:15.984Z,102551.22
2023-02-26T14:10:55.159Z,102554.00
2023-02-26T14:13:36.939Z,102553.84
2023-02-26T14:16:09.751Z,102558.97
2023-02-26T14:18:47.153Z,102566.38
2023-02-26T14:21:32.649Z,102565.28
2023-02-26T14:24:06.631Z,102572.16
2023-02-26T14:26:36.900Z,102565.59
2023-02-26T14:29:06.533Z,102564.84
2023-02-26T14:32:06.755Z,102567.34
2023-02-26T14:34:55.323Z,102566.25
2023-02-26T14:37:25.001Z,102565.28
2023-02-26T14:39:59.548Z,102556.69
2023-02-26T14:42:37.241Z,102555.41
2023-02-26T14:45:16.334Z,102567.56
2023-02-26T14:47:48.547Z,102555.13
2023-02-26T14:50:19.087Z,102551.72
2023-02-26T14:53:22.133Z,102559.97
2023-02-26T14:56:02.629Z,102568.69
2023-02-26T14:58:58.701Z,102566.94
2023-02-26T15:01:25.785Z,102573.59
2023-02-26T15:04:37.083Z,102572.53
2023-02-26T15:07:28.992Z,102574.34
2023-02-26T15:10:23.777Z,102572.78
2023-02-26T15:13:25.777Z,102562.97
2023-02-26T15:16:05.060Z,102565.31
2023-02-26T15:18:48.895Z,102582.19
2023-02-26T15:21:57.603Z,102576.22
2023-02-26T15:24:24.844Z,102572.53
2023-02-26T15:26:54.625Z,102569.53
2023-02-26T15:29:28.860Z,102578.69
2023-02-26T15:32:04.127Z,102582.28
2023-02-26T15:34:33.884Z,102582.97
2023-02-26T15:37:01.545Z,102584.56
2023-02-26T15:39:29.198Z,102590.19
2023-02-26T15:41:57.697Z,102581.78
2023-02-26T15:44:32.829Z,102590.38
2023-02-26T15:47:02.088Z,102590.94
2023-02-26T15:49:35.463Z,102582.16
2023-02-26T15:52:05.519Z,102586.81
2023-02-26T15:55:00.561Z,102583.50
2023-02-26T15:57:29.559Z,102585.59
2023-02-26T16:00:16.837Z,102588.22
2023-02-26T16:02:45.504Z,102586.31
2023-02-26T16:05:16.353Z,102590.16
2023-02-26T16:07:43.403Z,102592.72
2023-02-26T16:10:38.660Z,102599.72
2023-02-26T16:13:11.115Z,102579.72
2023-02-26T16:15:39.881Z,102593.03
2023-02-26T16:18:12.170Z,102581.19
2023-02-26T16:20:44.196Z,102593.25
2023-02-26T16:23:16.481Z,102596.69
2023-02-26T16:25:54.268Z,102606.09
2023-02-26T16:28:28.546Z,102603.66
2023-02-26T16:31:00.885Z,102601.50
2023-02-26T16:33:33.357Z,102603.88
2023-02-26T16:36:14.408Z,102601.53
2023-02-26T16:38:44.240Z,102613.22
2023-02-26T16:41:12.446Z,102620.19
2023-02-26T16:43:45.436Z,102621.56
2023-02-26T16:46:22.749Z,102624.38
2023-02-26T16:49:02.335Z,102625.53
2023-02-26T16:51:32.640Z,102634.53
2023-02-26T16:54:04.915Z,102627.44
2023-02-26T16:56:35.343Z,102633.78
2023-02-26T16:59:04.869Z,102642.94
2023-02-26T17:01:37.931Z,102643.41
2023-02-26T17:04:07.421Z,102640.00
2023-02-26T17:06:39.044Z,102657.16
2023-02-26T17:09:10.402Z,102648.94
2023-02-26T17:11:44.389Z,102654.03
2023-02-26T17:14:22.972Z,102653.22
2023-02-26T17:16:51.248Z,102670.25
2023-02-26T17:19:19.223Z,102664.66
2023-02-26T17:21:49.765Z,102671.31
2023-02-26T17:24:20.394Z,102659.47
2023-02-26T17:26:48.147Z,102674.81
2023-02-26T17:29:19.712Z,102674.47
2023-02-26T17:31:47.034Z,102678.44
2023-02-26T17:34:14.283Z,102692.81
2023-02-26T17:36:41.387Z,102688.09
2023-02-26T17:39:13.002Z,102690.06
2023-02-26T17:41:43.610Z,102689.59
2023-02-26T17:44:10.753Z,102692.13
2023-02-26T17:46:37.998Z,102692.47
2023-02-26T17:49:05.049Z,102698.09
2023-02-26T17:51:32.164Z,102697.84
2023-02-26T17:53:59.338Z,102700.94
2023-02-26T17:56:30.066Z,102695.09
2023-02-26T17:58:59.258Z,102699.94
2023-02-26T18:01:30.011Z,102692.66
2023-02-26T18:04:00.779Z,102698.44
2023-02-26T18:06:33.244Z,102700.50
2023-02-26T18:09:01.633Z,102705.63
2023-02-26T18:11:29.166Z,102712.81
2023-02-26T18:13:57.656Z,102720.22
2023-02-26T18:16:34.151Z,102717.00
2023-02-26T18:19:02.039Z,102719.16
2023-02-26T18:21:29.458Z,102714.81
2023-02-26T18:23:57.885Z,102714.03
2023-02-26T18:26:28.655Z,102728.34
2023-02-26T18:28:55.868Z,102732.44
2023-02-26T18:31:24.792Z,102727.09
2023-02-26T18:33:52.102Z,102730.16
2023-02-26T18:36:35.581Z,102740.38
2023-02-26T18:39:05.161Z,102741.94
2023-02-26T18:41:32.770Z,102734.03
2023-02-26T18:44:00.654Z,102739.03
2023-02-26T18:46:30.009Z,102736.72
2023-02-26T18:48:57.639Z,102730.72
2023-02-26T18:51:25.252Z,102745.81
2023-02-26T18:53:53.237Z,102754.25
2023-02-26T18:56:20.258Z,102745.44
2023-02-26T18:58:47.363Z,102741.97
2023-02-26T19:01:14.519Z,102752.19
2023-02-26T19:03:41.552Z,102742.13
2023-02-26T19:06:09.126Z,102745.81
2023-02-26T19:08:36.346Z,102742.13
2023-02-26T19:11:03.481Z,102747.75
2023-02-26T19:13:30.773Z,102748.75
2023-02-26T19:15:58.861Z,102751.56
2023-02-26T19:18:26.295Z,102756.16
2023-02-26T19:20:53.581Z,102755.66
2023-02-26T19:23:20.720Z,102763.66
2023-02-26T19:25:48.104Z,102758.56
2023-02-26T19:28:15.223Z,102762.63
2023-02-26T19:30:42.426Z,102759.69
2023-02-26T19:33:09.571Z,102761.09
2023-02-26T19:35:36.764Z,102764.28
2023-02-26T19:38:03.998Z,102773.59
2023-02-26T19:40:31.105Z,102765.81
2023-02-26T19:42:58.918Z,102764.28
2023-02-26T19:45:26.065Z,102772.22
2023-02-26T19:47:53.203Z,102778.94
2023-02-26T19:50:22.442Z,102776.16
2023-02-26T19:52:49.943Z,102767.75
2023-02-26T19:55:17.504Z,102774.38
2023-02-26T19:57:44.611Z,102771.41
2023-02-26T20:00:14.166Z,102780.19
2023-02-26T20:02:41.641Z,102779.94
2023-02-26T20:05:11.561Z,102772.75
2023-02-26T20:07:38.716Z,102779.41
2023-02-26T20:10:06.371Z,102780.94
2023-02-26T20:12:33.407Z,102774.94
2023-02-26T20:15:00.654Z,102781.56
2023-02-26T20:17:32.111Z,102781.91
2023-02-26T20:19:59.210Z,102774.22
2023-02-26T20:22:26.542Z,102790.16
2023-02-26T20:24:54.917Z,102781.56
2023-02-26T20:27:22.074Z,102794.06
2023-02-26T20:29:50.887Z,102799.50
2023-02-26T20:32:18.223Z,102791.38
2023-02-26T20:34:45.364Z,102796.97
2023-02-26T20:37:12.368Z,102796.56
2023-02-26T20:39:39.435Z,102799.56
2023-02-26T20:42:06.629Z,102795.84
2023-02-26T20:44:33.658Z,102804.88
2023-02-26T20:47:02.595Z,102815.81
2023-02-26T20:49:30.378Z,102811.34
2023-02-26T20:51:58.537Z,102809.28
2023-02-26T20:54:25.756Z,102806.63
2023-02-26T20:56:53.323Z,102812.59
2023-02-26T20:59:20.528Z,102806.88
2023-02-26T21:01:51.205Z,102813.47
2023-02-26T21:04:18.634Z,102816.31
2023-02-26T21:06:45.823Z,102826.63
2023-02-26T21:09:13.487Z,102816.19
2023-02-26T21:11:41.698Z,102819.19
2023-02-26T21:14:09.565Z,102826.09
2023-02-26T21:16:37.339Z,102824.28
2023-02-26T21:19:04.575Z,102827.88
2023-02-26T21:21:31.907Z,102826.38
2023-02-26T21:23:59.164Z,102830.56
2023-02-26T21:26:28.483Z,102832.22
2023-02-26T21:28:55.649Z,102822.22
2023-02-26T21:31:22.747Z,102828.22
2023-02-26T21:33:49.928Z,102842.84
2023-02-26T21:36:16.968Z,102837.44
2023-02-26T21:38:44.251Z,102846.56
2023-02-26T21:41:11.619Z,102848.78
2023-02-26T21:43:39.232Z,102844.69
2023-02-26T21:46:06.623Z,102843.31
2023-02-26T21:48:33.977Z,102850.22
2023-02-26T21:51:04.715Z,102834.38
2023-02-26T21:53:31.893Z,102849.59
2023-02-26T21:55:58.978Z,102847.75
2023-02-26T21:58:26.359Z,102850.72
2023-02-26T22:00:53.773Z,102848.78
2023-02-26T22:03:20.824Z,102843.28
2023-02-26T22:05:51.325Z,102847.75
2023-02-26T22:08:19.589Z,102847.75
2023-02-26T22:10:46.900Z,102849.03
2023-02-26T22:13:14.922Z,102844.22
2023-02-26T22:15:42.635Z,102845.25
2023-02-26T22:18:09.784Z,102838.63
2023-02-26T22:20:37.034Z,102830.22
2023-02-26T22:23:04.730Z,102833.81
2023-02-26T22:25:31.968Z,102841.47
2023-02-26T22:27:59.624Z,102837.59
2023-02-26T22:30:27.579Z,102842.84
2023-02-26T22:32:55.131Z,102839.47
2023-02-26T22:35:22.279Z,102845.81
2023-02-26T22:37:49.403Z,102856.34
2023-02-26T22:40:16.651Z,102847.88
2023-02-26T22:42:44.256Z,102835.81
2023-02-26T22:45:13.401Z,102843.09
2023-02-26T22:47:40.535Z,102855.72
2023-02-26T22:50:07.781Z,102857.97
2023-02-26T22:52:34.843Z,102848.75
2023-02-26T22:55:02.115Z,102859.69
2023-02-26T22:57:29.298Z,102846.56
2023-02-26T22:59:56.312Z,102863.03
2023-02-26T23:02:24.358Z,102862.75
2023-02-26T23:04:51.519Z,102871.03
2023-02-26T23:07:18.645Z,102869.50
2023-02-26T23:09:45.705Z,102873.84
2023-02-26T23:12:12.726Z,102874.13
2023-02-26T23:14:40.201Z,102867.53
2023-02-26T23:17:08.731Z,102875.25
2023-02-26T23:19:36.752Z,102860.13
2023-02-26T23:22:03.910Z,102875.63
2023-02-26T23:24:30.975Z,102875.63
2023-02-26T23:26:58.821Z,102881.13
2023-02-26T23:29:25.929Z,102877.56
2023-02-26T23:31:53.171Z,102865.78
2023-02-26T23:34:20.348Z,102878.66
2023-02-26T23:36:47.416Z,102866.97
2023-02-26T23:39:15.336Z,102876.28
2023-02-26T23:41:42.388Z,102862.88
2023-02-26T23:44:09.512Z,102867.78
2023-02-26T23:46:37.542Z,102872.88
2023-02-26T23:49:04.710Z,102871.69
2023-02-26T23:51:31.740Z,102878.28
2023-02-26T23:53:58.747Z,102884.25
2023-02-26T23:56:25.915Z,102889.97
2023-02-26T23:58:53.099Z,102897.63
